Time;durP1;ratioP1;P1;durP2;ratioP2;P2;SDS_P1;SDS_P2;PMS_P1;PMS_P2;Temp;Humidity;BMP_temperature;BMP_pressure;BME280_temperature;BME280_humidity;BME280_pressure;Samples;Min_cycle;Max_cycle;Signal;HPM_P1;HPM_P2
2022/11/26 00:02:16;;;;;;;13.37;8.30;;;;;;;10.17;67.13;98742.72;8317996;28;20243;-72
2022/11/26 00:06:25;;;;;;;13.60;7.30;;;;;;;10.19;67.08;98733.16;8317957;28;20248;-72
2022/11/26 00:10:30;;;;;;;12.70;7.03;;;;;;;10.25;67.29;98745.06;8317733;28;20257;-74
2022/11/26 00:14:33;;;;;;;14.77;7.77;;;;;;;10.10;67.99;98736.03;8317609;28;20555;-74
2022/11/26 00:18:38;;;;;;;13.57;7.60;;;;;;;10.26;67.79;98751.94;8317424;28;20342;-74
2022/11/26 00:22:42;;;;;;;12.30;6.90;;;;;;;10.15;67.98;98747.94;8317386;28;20269;-74
2022/11/26 00:26:45;;;;;;;13.23;7.70;;;;;;;10.10;68.37;98756.72;8317670;28;20484;-73
2022/11/26 00:30:48;;;;;;;14.70;7.07;;;;;;;10.25;68.29;98758.00;8317558;28;20513;-73
2022/11/26 00:34:52;;;;;;;10.73;6.57;;;;;;;10.24;67.79;98759.72;8317154;28;20328;-72
2022/11/26 00:38:57;;;;;;;13.27;7.40;;;;;;;10.13;68.46;98777.34;8316397;28;20228;-72
2022/11/26 00:42:59;;;;;;;15.30;7.13;;;;;;;10.11;68.54;98781.69;8316764;28;20234;-73
2022/11/26 00:47:03;;;;;;;10.87;5.93;;;;;;;10.10;68.25;98777.44;8316706;28;20230;-72
2022/11/26 00:51:12;;;;;;;16.77;7.00;;;;;;;10.19;67.85;98787.53;8316547;28;20559;-72
2022/11/26 00:55:27;;;;;;;10.93;6.00;;;;;;;10.22;67.36;98792.59;8316370;28;20233;-71
2022/11/26 00:59:30;;;;;;;15.47;6.97;;;;;;;10.13;68.09;98792.88;8316368;28;20243;-72
2022/11/26 01:03:32;;;;;;;11.63;6.73;;;;;;;10.18;67.30;98796.16;8316202;28;20236;-72
2022/11/26 01:07:37;;;;;;;14.97;7.20;;;;;;;10.20;67.90;98809.06;8316001;28;20234;-72
2022/11/26 01:11:39;;;;;;;13.10;6.70;;;;;;;10.11;67.85;98816.22;8316064;28;20284;-72
2022/11/26 01:15:42;;;;;;;12.23;6.67;;;;;;;10.14;67.76;98817.84;8315769;28;20328;-73
2022/11/26 01:19:45;;;;;;;16.97;7.30;;;;;;;10.14;67.85;98820.44;8315744;28;20268;-73
2022/11/26 01:23:49;;;;;;;11.30;5.77;;;;;;;10.18;67.60;98820.31;8315059;28;20226;-73
2022/11/26 01:27:53;;;;;;;13.27;6.40;;;;;;;10.25;67.42;98828.75;8314893;28;20455;-71
2022/11/26 01:31:56;;;;;;;12.20;6.00;;;;;;;10.21;67.43;98834.06;8315369;28;20226;-72
2022/11/26 01:35:59;;;;;;;12.43;5.87;;;;;;;10.06;67.76;98814.66;8315162;28;20237;-72
2022/11/26 01:40:03;;;;;;;10.60;5.97;;;;;;;10.22;67.49;98836.59;8315354;28;20315;-73
2022/11/26 01:44:07;;;;;;;14.10;6.20;;;;;;;10.22;67.17;98854.72;8314961;28;20253;-72
2022/11/26 01:48:23;;;;;;;12.00;6.07;;;;;;;10.25;67.04;98844.28;8315099;28;20246;-72
2022/11/26 01:52:26;;;;;;;13.10;6.00;;;;;;;10.25;67.65;98853.78;8315260;28;20240;-72
2022/11/26 01:56:35;;;;;;;12.80;6.00;;;;;;;10.24;67.14;98852.94;8314802;28;20235;-73
2022/11/26 02:00:38;;;;;;;10.30;5.50;;;;;;;10.19;67.36;98854.81;8314594;28;20234;-72
2022/11/26 02:04:43;;;;;;;11.17;5.70;;;;;;;10.29;67.43;98863.16;8314749;28;20251;-73
2022/11/26 02:08:46;;;;;;;13.30;6.37;;;;;;;10.16;67.74;98873.00;8314527;28;20284;-73
2022/11/26 02:12:51;;;;;;;11.23;5.60;;;;;;;10.28;67.15;98871.81;8314825;28;20521;-73
2022/11/26 02:17:01;;;;;;;14.17;5.30;;;;;;;10.28;66.97;98869.22;8314146;28;20271;-72
2022/11/26 02:21:06;;;;;;;13.03;5.60;;;;;;;10.23;67.52;98882.31;8314234;28;20536;-73
2022/11/26 02:25:17;;;;;;;14.00;5.47;;;;;;;10.30;66.89;98888.16;8314496;28;20452;-72
2022/11/26 02:29:27;;;;;;;15.60;6.07;;;;;;;10.15;67.74;98892.88;8314261;28;20234;-73
2022/11/26 02:33:36;;;;;;;10.40;5.00;;;;;;;10.20;67.64;98897.06;8314469;28;20448;-73
2022/11/26 02:37:42;;;;;;;11.47;5.40;;;;;;;10.16;67.85;98896.31;8320667;28;20230;-73
2022/11/26 02:41:47;;;;;;;13.87;5.20;;;;;;;10.08;68.01;98908.63;8320643;28;20522;-73
2022/11/26 02:45:54;;;;;;;11.50;4.83;;;;;;;10.15;67.85;98895.47;8320457;28;20234;-73
2022/11/26 02:50:01;;;;;;;14.30;4.77;;;;;;;10.16;67.15;98884.22;8320031;28;20230;-73
2022/11/26 02:54:06;;;;;;;11.80;4.90;;;;;;;10.13;67.64;98896.41;8320348;28;20516;-72
2022/11/26 02:58:09;;;;;;;14.10;4.93;;;;;;;10.07;67.65;98900.03;8320160;28;20308;-72
2022/11/26 03:02:16;;;;;;;11.20;4.93;;;;;;;10.20;67.22;98904.84;8320137;28;20244;-72
2022/11/26 03:06:20;;;;;;;13.73;5.07;;;;;;;10.09;68.19;98910.31;8319814;28;20232;-73
2022/11/26 03:10:25;;;;;;;10.87;4.50;;;;;;;10.07;67.92;98912.09;8319791;28;20236;-73
2022/11/26 03:14:28;;;;;;;13.40;4.97;;;;;;;9.96;68.21;98917.56;8319677;28;20236;-73
2022/11/26 03:18:31;;;;;;;10.17;4.33;;;;;;;9.96;68.36;98915.81;8319693;28;20248;-73
2022/11/26 03:22:36;;;;;;;11.97;4.77;;;;;;;10.05;67.53;98916.47;8319526;28;20232;-72
2022/11/26 03:26:38;;;;;;;12.27;4.50;;;;;;;9.98;68.01;98921.81;8319305;28;20292;-73
2022/11/26 03:30:41;;;;;;;13.83;4.90;;;;;;;10.01;67.45;98923.44;8319241;28;20303;-73
2022/11/26 03:34:44;;;;;;;13.97;5.63;;;;;;;10.02;67.29;98929.50;8319119;28;20271;-73
2022/11/26 03:38:48;;;;;;;16.43;5.33;;;;;;;9.90;67.99;98938.41;8318777;28;20229;-73
2022/11/26 03:42:51;;;;;;;12.20;5.53;;;;;;;9.95;68.03;98940.00;8318892;28;20257;-73
2022/11/26 03:46:54;;;;;;;14.27;4.83;;;;;;;10.05;67.61;98948.38;8318017;28;20241;-72
2022/11/26 03:50:57;;;;;;;13.67;4.70;;;;;;;9.96;67.87;98953.81;8318601;28;20234;-73
2022/11/26 03:55:01;;;;;;;11.27;5.07;;;;;;;9.96;67.83;98964.16;8318370;28;20234;-73
2022/11/26 03:59:03;;;;;;;12.97;5.17;;;;;;;10.09;67.51;98955.19;8318074;28;20243;-73
2022/11/26 04:03:06;;;;;;;11.50;5.30;;;;;;;10.00;67.84;98972.69;8318269;28;20229;-72
2022/11/26 04:07:09;;;;;;;11.60;5.40;;;;;;;10.00;68.03;98970.09;8318220;28;20347;-73
2022/11/26 04:11:13;;;;;;;13.00;5.67;;;;;;;9.97;67.64;98973.59;8317900;28;20244;-73
2022/11/26 04:15:16;;;;;;;16.90;5.60;;;;;;;10.04;67.47;98980.31;8317683;28;20303;-72
2022/11/26 04:19:19;;;;;;;14.23;5.80;;;;;;;10.13;67.45;98980.09;8317547;28;20561;-72
2022/11/26 04:23:22;;;;;;;14.23;6.07;;;;;;;10.10;67.45;98980.16;8317766;28;20227;-73
2022/11/26 04:27:26;;;;;;;12.90;6.50;;;;;;;9.96;67.48;98992.63;8317655;28;20232;-73
2022/11/26 04:31:29;;;;;;;13.60;5.60;;;;;;;10.07;67.58;99000.09;8317476;28;20412;-73
2022/11/26 04:35:32;;;;;;;16.13;6.20;;;;;;;9.96;68.34;99008.97;8317092;28;20415;-73
2022/11/26 04:39:35;;;;;;;18.57;5.87;;;;;;;10.12;67.53;99004.25;8317349;28;20255;-73
2022/11/26 04:43:39;;;;;;;10.07;5.33;;;;;;;10.16;67.24;99005.88;8317100;28;20233;-73
2022/11/26 04:47:42;;;;;;;13.97;6.60;;;;;;;10.06;68.01;99012.19;8317231;28;20559;-73
2022/11/26 04:51:45;;;;;;;15.30;6.00;;;;;;;10.12;67.37;99016.34;8316436;28;20226;-73
2022/11/26 04:55:49;;;;;;;14.20;6.27;;;;;;;10.05;67.66;99012.22;8315877;28;20303;-73
2022/11/26 04:59:53;;;;;;;13.50;6.30;;;;;;;10.02;68.05;99022.66;8315076;28;20233;-73
2022/11/26 05:03:56;;;;;;;12.43;5.50;;;;;;;10.06;67.68;99030.28;8315591;28;20313;-72
2022/11/26 05:07:58;;;;;;;16.77;7.20;;;;;;;9.85;68.12;99028.25;8315859;28;20232;-73
2022/11/26 05:12:01;;;;;;;13.17;6.10;;;;;;;9.92;67.24;99022.88;8315981;28;20258;-72
2022/11/26 05:16:06;;;;;;;13.33;6.30;;;;;;;10.05;67.72;99035.50;8315629;28;20291;-72
2022/11/26 05:20:09;;;;;;;13.63;6.03;;;;;;;10.06;67.66;99040.66;8315382;28;20243;-73
2022/11/26 05:24:12;;;;;;;16.37;6.43;;;;;;;10.03;67.56;99039.88;8315383;28;20528;-73
2022/11/26 05:28:15;;;;;;;14.53;6.40;;;;;;;10.09;67.46;99045.75;8315362;28;20233;-72
2022/11/26 05:32:19;;;;;;;13.03;6.70;;;;;;;10.05;67.48;99048.44;8315603;28;20233;-73
2022/11/26 05:36:22;;;;;;;18.43;6.67;;;;;;;9.99;67.51;99052.03;8315008;28;20230;-73
2022/11/26 05:40:24;;;;;;;13.73;6.47;;;;;;;10.00;67.73;99055.50;8314633;28;20242;-73
2022/11/26 05:44:27;;;;;;;13.17;6.47;;;;;;;9.99;67.63;99054.63;8314828;28;20237;-72
2022/11/26 05:48:31;;;;;;;16.23;6.30;;;;;;;10.02;67.29;99051.97;8314975;28;20243;-73
2022/11/26 05:52:34;;;;;;;12.50;6.40;;;;;;;10.06;67.22;99063.09;8314689;28;20383;-73
2022/11/26 05:56:40;;;;;;;15.77;7.23;;;;;;;9.99;67.39;99080.50;8314628;28;20222;-73
2022/11/26 06:00:43;;;;;;;15.80;7.90;;;;;;;10.04;66.99;99070.91;8314448;28;20422;-73
2022/11/26 06:04:47;;;;;;;15.37;6.87;;;;;;;10.10;67.21;99067.31;8314325;28;20528;-73
2022/11/26 06:08:49;;;;;;;14.77;6.60;;;;;;;10.10;67.29;99075.91;8314150;28;20226;-73
2022/11/26 06:12:52;;;;;;;16.97;7.17;;;;;;;10.15;67.18;99078.41;8314003;28;20580;-71
2022/11/26 06:16:55;;;;;;;14.13;6.40;;;;;;;10.13;67.28;99075.84;8314265;28;20537;-72
2022/11/26 06:21:01;;;;;;;14.43;6.30;;;;;;;10.11;66.89;99087.13;8313826;28;20245;-72
2022/11/26 06:25:05;;;;;;;12.77;6.60;;;;;;;10.09;66.92;99082.00;8314066;28;20231;-72
2022/11/26 06:29:07;;;;;;;13.77;6.37;;;;;;;10.12;66.98;99097.44;8314084;28;20248;-72
2022/11/26 06:33:10;;;;;;;14.53;6.57;;;;;;;10.12;66.75;99094.84;8314115;28;20389;-73
2022/11/26 06:37:15;;;;;;;16.30;6.83;;;;;;;10.02;66.88;99102.88;8313939;28;20521;-73
2022/11/26 06:41:18;;;;;;;13.83;6.30;;;;;;;10.07;66.51;99107.06;8313695;28;20240;-73
2022/11/26 06:45:21;;;;;;;12.87;6.73;;;;;;;9.84;67.62;99110.16;8313410;28;20221;-72
2022/11/26 06:49:24;;;;;;;13.20;6.50;;;;;;;9.97;66.72;99119.34;8313498;28;20236;-72
2022/11/26 06:53:28;;;;;;;12.60;6.07;;;;;;;10.00;66.72;99126.22;8313983;28;20233;-73
2022/11/26 06:57:31;;;;;;;12.70;6.00;;;;;;;10.04;66.25;99125.25;8313954;28;20288;-73
2022/11/26 07:01:34;;;;;;;14.07;5.80;;;;;;;9.95;66.62;99120.28;8313331;28;20257;-73
2022/11/26 07:05:37;;;;;;;12.10;5.77;;;;;;;9.98;66.44;99134.00;8313263;28;20222;-72
2022/11/26 07:09:41;;;;;;;10.93;6.00;;;;;;;10.04;66.62;99132.16;8313341;28;20237;-73
2022/11/26 07:13:44;;;;;;;12.47;6.37;;;;;;;9.94;66.13;99116.00;8313251;28;20508;-73
2022/11/26 07:17:47;;;;;;;14.23;6.27;;;;;;;10.06;66.16;99128.66;8313237;28;20454;-73
2022/11/26 07:21:50;;;;;;;12.87;6.20;;;;;;;10.05;66.39;99133.84;8314891;28;20237;-74
2022/11/26 07:25:54;;;;;;;9.67;6.30;;;;;;;10.07;66.66;99137.25;8318845;28;20246;-72
2022/11/26 07:29:57;;;;;;;17.63;8.50;;;;;;;9.94;66.56;99142.72;8319130;28;20232;-72
2022/11/26 07:33:59;;;;;;;14.47;7.37;;;;;;;9.94;67.19;99147.91;8318887;28;20256;-72
2022/11/26 07:38:02;;;;;;;12.47;7.13;;;;;;;10.05;66.46;99150.25;8318654;28;20299;-71
2022/11/26 07:42:07;;;;;;;14.13;6.50;;;;;;;10.11;65.73;99157.88;8318745;28;20455;-73
2022/11/26 07:46:11;;;;;;;11.93;6.50;;;;;;;10.96;63.89;99160.94;8318427;28;20522;-73
2022/11/26 07:50:14;;;;;;;12.67;6.10;;;;;;;11.04;62.74;99166.78;8317895;28;20525;-73
2022/11/26 07:54:16;;;;;;;10.13;6.33;;;;;;;10.64;64.48;99174.75;8317967;28;20233;-73
2022/11/26 07:58:21;;;;;;;9.73;5.30;;;;;;;10.60;64.42;99176.56;8318205;28;20240;-73
2022/11/26 08:02:24;;;;;;;10.57;5.73;;;;;;;10.55;64.35;99186.19;8317953;28;20421;-73
2022/11/26 08:06:29;;;;;;;11.13;5.43;;;;;;;10.72;64.22;99194.41;8317946;28;20227;-73
2022/11/26 08:10:31;;;;;;;10.30;6.13;;;;;;;10.66;64.47;99204.91;8317543;28;20234;-73
2022/11/26 08:14:35;;;;;;;14.73;6.30;;;;;;;11.10;61.82;99204.63;8317548;28;20517;-73
2022/11/26 08:18:40;;;;;;;10.00;6.00;;;;;;;10.64;64.59;99213.59;8317329;28;20235;-74
2022/11/26 08:22:43;;;;;;;10.43;6.10;;;;;;;10.72;64.16;99217.72;8317053;28;20235;-74
2022/11/26 08:26:46;;;;;;;11.43;6.67;;;;;;;10.67;63.92;99219.56;8317325;28;20227;-74
2022/11/26 08:30:51;;;;;;;13.30;7.27;;;;;;;10.75;64.13;99224.56;8317095;28;20234;-74
2022/11/26 08:34:53;;;;;;;11.50;6.93;;;;;;;10.93;63.97;99234.47;8316224;28;20226;-74
2022/11/26 08:38:56;;;;;;;12.27;8.17;;;;;;;10.88;63.90;99238.06;8316806;28;20285;-74
2022/11/26 08:42:59;;;;;;;14.50;7.87;;;;;;;10.85;64.13;99246.78;8316620;28;20408;-73
2022/11/26 08:47:03;;;;;;;12.87;7.90;;;;;;;10.73;64.80;99244.47;8316547;28;20556;-73
2022/11/26 08:51:08;;;;;;;12.93;7.43;;;;;;;10.79;64.80;99254.69;8316132;28;20518;-72
2022/11/26 08:55:11;;;;;;;12.63;7.90;;;;;;;10.76;64.36;99265.97;8316152;28;20228;-73
2022/11/26 08:59:13;;;;;;;14.17;7.30;;;;;;;10.84;64.40;99270.97;8313188;28;20290;-75
2022/11/26 09:03:18;;;;;;;16.47;7.90;;;;;;;10.80;64.78;99281.47;8312704;28;20361;-73
2022/11/26 09:07:21;;;;;;;18.93;8.67;;;;;;;10.66;65.06;99282.66;8312770;28;20226;-74
2022/11/26 09:11:24;;;;;;;14.93;7.70;;;;;;;10.62;65.46;99285.31;8312129;28;20240;-73
2022/11/26 09:15:27;;;;;;;16.87;8.20;;;;;;;10.55;65.31;99292.41;8311330;28;20275;-72
2022/11/26 09:19:31;;;;;;;14.30;7.80;;;;;;;10.60;65.03;99293.13;8312664;28;20303;-72
2022/11/26 09:23:33;;;;;;;12.67;8.20;;;;;;;10.56;64.53;99294.94;8311786;28;20238;-72
2022/11/26 09:27:37;;;;;;;11.83;7.83;;;;;;;10.22;66.43;99299.13;8311803;28;20284;-73
2022/11/26 09:31:39;;;;;;;15.90;7.67;;;;;;;10.45;65.40;99296.06;8311850;28;20240;-74
2022/11/26 09:36:09;;;;;;;17.80;8.10;;;;;;;10.56;64.18;99301.88;8311234;28;20296;-74
2022/11/26 09:40:17;;;;;;;12.17;8.13;;;;;;;10.59;64.63;99299.22;8311705;28;20400;-74
2022/11/26 09:44:24;;;;;;;11.83;7.90;;;;;;;10.52;64.47;99297.63;8311156;28;20250;-74
2022/11/26 09:48:28;;;;;;;12.77;6.93;;;;;;;10.50;64.48;99284.72;8311355;28;20235;-74
2022/11/26 09:52:38;;;;;;;15.77;8.33;;;;;;;10.55;64.29;99298.44;8311595;28;20241;-74
2022/11/26 09:56:41;;;;;;;14.20;8.03;;;;;;;10.53;64.84;99296.78;8311596;28;20230;-73
2022/11/26 10:00:45;;;;;;;15.03;7.43;;;;;;;10.59;65.09;99298.38;8311284;28;20237;-73
2022/11/26 10:04:48;;;;;;;15.10;8.10;;;;;;;10.34;65.06;99291.16;8311313;28;20374;-74
2022/11/26 10:09:12;;;;;;;15.47;7.33;;;;;;;10.44;64.21;99286.63;8311074;28;20242;-75
2022/11/26 10:13:19;;;;;;;12.50;7.10;;;;;;;10.54;64.44;99295.88;8311404;28;20284;-74
2022/11/26 10:17:29;;;;;;;15.67;8.10;;;;;;;10.57;64.59;99304.41;8311066;28;20399;-74
2022/11/26 10:21:35;;;;;;;17.50;8.30;;;;;;;10.23;64.86;99281.00;8311298;28;20227;-74
2022/11/26 10:26:06;;;;;;;13.63;6.90;;;;;;;10.57;65.19;99294.06;8310536;28;20233;-74
2022/11/26 10:30:17;;;;;;;14.53;7.13;;;;;;;10.61;64.42;99294.00;8311216;28;20234;-74
2022/11/26 10:34:23;;;;;;;12.67;6.60;;;;;;;10.63;64.18;99292.22;8311595;28;20230;-74
2022/11/26 10:38:30;;;;;;;14.57;7.70;;;;;;;10.69;64.30;99298.09;8311419;28;20226;-73
2022/11/26 10:42:42;;;;;;;14.77;8.13;;;;;;;10.65;64.65;99303.41;8310888;28;20408;-74
2022/11/26 10:46:44;;;;;;;15.07;8.13;;;;;;;10.56;64.65;99297.53;8310777;28;20223;-75
2022/11/26 10:51:06;;;;;;;14.00;8.80;;;;;;;10.61;64.29;99291.41;8310595;28;20504;-75
2022/11/26 10:55:17;;;;;;;16.57;9.27;;;;;;;10.71;63.99;99285.97;8310822;28;20237;-74
2022/11/26 10:59:25;;;;;;;17.43;9.73;;;;;;;10.66;63.82;99297.31;8316823;28;20279;-74
2022/11/26 11:03:30;;;;;;;15.43;10.17;;;;;;;10.69;64.03;99292.91;8316860;28;20223;-75
2022/11/26 11:07:53;;;;;;;17.53;10.40;;;;;;;10.52;63.64;99298.47;8316187;28;20611;-73
2022/11/26 11:12:14;;;;;;;24.17;14.53;;;;;;;11.41;80.42;99279.03;8316616;28;20588;-74
2022/11/26 11:16:25;;;;;;;21.40;13.30;;;;;;;12.58;71.27;99299.03;8316492;28;20231;-73
2022/11/26 11:20:35;;;;;;;17.03;11.17;;;;;;;11.64;62.75;99294.81;8316172;28;20426;-74
2022/11/26 11:24:38;;;;;;;18.03;11.23;;;;;;;11.44;62.84;99289.31;8317047;28;20230;-74
2022/11/26 11:28:46;;;;;;;18.70;10.20;;;;;;;11.14;62.21;99292.69;8316115;28;20238;-75
2022/11/26 11:32:51;;;;;;;15.83;9.80;;;;;;;10.61;62.57;99297.44;8315824;28;20226;-73
2022/11/26 11:36:59;;;;;;;17.43;10.83;;;;;;;10.78;62.50;99293.59;8314866;28;20233;-74
2022/11/26 11:41:04;;;;;;;18.97;12.40;;;;;;;10.85;62.71;99295.13;8315863;28;20227;-74
2022/11/26 11:45:21;;;;;;;18.43;11.70;;;;;;;10.81;62.98;99290.91;8315316;28;20278;-74
2022/11/26 11:49:36;;;;;;;18.90;11.87;;;;;;;10.74;62.99;99292.81;8315303;28;20387;-75
2022/11/26 11:53:45;;;;;;;18.27;12.00;;;;;;;11.02;67.90;99292.13;8315352;28;20241;-75
2022/11/26 11:58:03;;;;;;;19.40;12.47;;;;;;;11.82;72.40;99290.88;8315209;28;20229;-75
2022/11/26 12:02:36;;;;;;;19.30;11.70;;;;;;;12.09;70.96;99293.59;8314824;28;20378;-74
2022/11/26 12:06:49;;;;;;;23.57;13.30;;;;;;;12.17;66.96;99298.56;8314441;28;20219;-74
2022/11/26 12:11:04;;;;;;;18.67;12.40;;;;;;;11.96;61.44;99287.91;8314028;28;20518;-74
2022/11/26 12:15:12;;;;;;;18.17;11.17;;;;;;;11.44;60.92;99295.38;8314558;28;20258;-74
2022/11/26 12:19:19;;;;;;;14.80;9.57;;;;;;;11.26;60.26;99301.88;8314486;28;20328;-74
2022/11/26 12:23:28;;;;;;;12.80;9.13;;;;;;;11.60;71.20;99276.81;8314645;28;20253;-75
2022/11/26 12:27:33;;;;;;;12.07;8.90;;;;;;;12.01;68.14;99293.81;8314365;28;20234;-75
2022/11/26 12:31:39;;;;;;;13.40;8.57;;;;;;;11.21;61.27;99295.13;8313987;28;20226;-76
2022/11/26 12:35:44;;;;;;;19.43;12.43;;;;;;;11.17;60.61;99278.78;8313832;28;20237;-79
2022/11/26 12:39:53;;;;;;;10.03;8.23;;;;;;;11.32;60.35;99288.75;8313942;28;20245;-76
2022/11/26 12:44:00;;;;;;;16.23;9.60;;;;;;;11.31;60.95;99291.41;8313210;28;20242;-74
2022/11/26 12:48:10;;;;;;;14.73;8.80;;;;;;;11.09;60.50;99294.53;8313521;28;20230;-73
2022/11/26 12:52:24;;;;;;;14.90;10.73;;;;;;;11.23;60.28;99295.91;8313569;28;20495;-73
2022/11/26 12:56:32;;;;;;;13.77;8.37;;;;;;;11.10;60.28;99295.38;8313152;28;20226;-75
2022/11/26 13:00:35;;;;;;;17.37;8.63;;;;;;;10.90;60.28;99275.16;8313018;28;20226;-74
2022/11/26 13:04:38;;;;;;;14.93;8.93;;;;;;;11.12;60.17;99294.47;8313099;28;20234;-74
2022/11/26 13:08:46;;;;;;;15.23;10.07;;;;;;;11.22;59.89;99284.72;8312879;28;20429;-74
2022/11/26 13:12:57;;;;;;;21.97;11.97;;;;;;;11.30;59.43;99290.53;8312731;28;20238;-74
2022/11/26 13:17:04;;;;;;;13.67;9.57;;;;;;;11.28;59.83;99291.47;8311854;28;20234;-73
2022/11/26 13:21:18;;;;;;;18.97;9.93;;;;;;;11.23;60.53;99291.59;8311571;28;20235;-73
2022/11/26 13:25:47;;;;;;;15.93;10.70;;;;;;;11.05;60.19;99279.09;8312229;28;20234;-73
2022/11/26 13:30:05;;;;;;;16.03;11.00;;;;;;;11.06;60.32;99283.38;8312450;28;20234;-74
2022/11/26 13:34:32;;;;;;;15.50;11.50;;;;;;;11.06;60.16;99296.34;8312211;28;20234;-76
2022/11/26 13:38:44;;;;;;;19.67;9.80;;;;;;;11.05;60.71;99295.50;8312233;28;20230;-74
2022/11/26 13:43:14;;;;;;;16.10;10.47;;;;;;;11.03;60.21;99292.09;8312103;28;20238;-74
2022/11/26 13:47:20;;;;;;;15.30;11.00;;;;;;;11.06;60.16;99289.44;8311070;28;20226;-73
2022/11/26 13:51:27;;;;;;;14.90;9.80;;;;;;;11.00;61.31;99289.56;8312108;28;20518;-74
2022/11/26 13:55:33;;;;;;;14.27;9.60;;;;;;;10.93;60.83;99288.88;8313067;28;20305;-73
2022/11/26 13:59:36;;;;;;;14.87;9.73;;;;;;;10.99;60.55;99287.88;8312115;28;20253;-74
2022/11/26 14:03:46;;;;;;;13.47;8.90;;;;;;;11.06;60.54;99283.38;8311580;28;20373;-74
2022/11/26 14:07:49;;;;;;;16.60;9.37;;;;;;;11.01;61.32;99298.22;8311520;28;20230;-74
2022/11/26 14:11:56;;;;;;;15.57;9.77;;;;;;;10.91;61.44;99290.66;8310986;28;20404;-72
2022/11/26 14:16:01;;;;;;;14.10;8.87;;;;;;;10.89;61.64;99296.75;8310575;28;20261;-74
2022/11/26 14:20:08;;;;;;;15.57;9.77;;;;;;;10.97;61.55;99289.66;8311408;28;20234;-73
2022/11/26 14:24:11;;;;;;;18.27;11.53;;;;;;;10.93;61.79;99295.81;8311224;28;20241;-73
2022/11/26 14:28:14;;;;;;;14.43;8.40;;;;;;;10.85;62.45;99297.72;8311282;28;20234;-73
2022/11/26 14:32:18;;;;;;;18.73;9.90;;;;;;;10.76;62.24;99314.38;8315940;28;20331;-75
2022/11/26 14:36:24;;;;;;;16.87;8.07;;;;;;;10.83;62.42;99305.53;8317561;28;20257;-74
2022/11/26 14:40:30;;;;;;;13.27;8.60;;;;;;;10.88;62.30;99305.44;8317295;28;20229;-73
2022/11/26 14:44:33;;;;;;;15.97;8.80;;;;;;;10.88;61.77;99308.88;8317664;28;20233;-75
2022/11/26 14:48:41;;;;;;;15.03;9.03;;;;;;;10.72;62.12;99300.63;8317744;28;20246;-74
2022/11/26 14:52:46;;;;;;;13.03;9.07;;;;;;;10.80;62.48;99295.25;8317522;28;20510;-75
2022/11/26 14:56:50;;;;;;;15.27;9.63;;;;;;;10.75;62.38;99307.47;8316649;28;20250;-73
2022/11/26 15:01:18;;;;;;;17.20;8.87;;;;;;;10.64;62.45;99315.50;8316411;28;20230;-74
2022/11/26 15:05:23;;;;;;;13.00;8.93;;;;;;;10.75;62.55;99318.66;8316971;28;20286;-73
2022/11/26 15:09:28;;;;;;;18.57;9.07;;;;;;;10.80;62.32;99325.50;8317064;28;20230;-73
2022/11/26 15:13:34;;;;;;;187.67;130.53;;;;;;;10.81;63.35;99329.78;8316335;28;20297;-73
2022/11/26 15:17:38;;;;;;;15.83;9.73;;;;;;;10.74;62.26;99323.91;8316047;28;20250;-74
2022/11/26 15:21:41;;;;;;;20.07;12.13;;;;;;;10.70;62.77;99330.03;8316028;28;20231;-74
2022/11/26 15:25:49;;;;;;;16.20;10.77;;;;;;;10.75;63.02;99331.63;8316143;28;20230;-74
2022/11/26 15:29:52;;;;;;;24.60;16.10;;;;;;;10.72;62.46;99320.50;8316058;28;20230;-74
2022/11/26 15:33:54;;;;;;;19.83;13.10;;;;;;;10.66;62.93;99316.31;8315466;28;20349;-72
2022/11/26 15:37:58;;;;;;;18.47;13.73;;;;;;;10.61;63.12;99319.91;8315134;28;20234;-72
2022/11/26 15:42:05;;;;;;;21.70;15.47;;;;;;;10.66;62.75;99321.50;8315031;28;20308;-73
2022/11/26 15:46:13;;;;;;;16.30;13.30;;;;;;;10.72;65.12;99331.72;8315431;28;20241;-76
2022/11/26 15:50:24;;;;;;;17.50;10.97;;;;;;;12.77;70.79;99322.72;8315460;28;20392;-74
2022/11/26 15:54:29;;;;;;;18.07;10.77;;;;;;;12.93;63.25;99317.84;8315626;28;20234;-74
2022/11/26 15:58:55;;;;;;;20.00;12.57;;;;;;;13.13;60.69;99309.41;8315276;28;20257;-74
2022/11/26 16:02:58;;;;;;;22.77;15.90;;;;;;;11.88;59.86;99319.25;8314839;28;20518;-75
2022/11/26 16:07:08;;;;;;;17.63;12.80;;;;;;;11.62;60.41;99327.75;8315189;28;20247;-75
2022/11/26 16:11:20;;;;;;;19.80;14.03;;;;;;;11.37;60.18;99318.94;8314892;28;20294;-74
2022/11/26 16:15:26;;;;;;;18.23;12.73;;;;;;;11.34;61.13;99343.19;8314936;28;20332;-74
2022/11/26 16:19:29;;;;;;;20.77;13.90;;;;;;;11.23;61.85;99342.59;8314702;28;20420;-74
2022/11/26 16:23:32;;;;;;;18.17;13.10;;;;;;;11.07;62.06;99335.19;8314405;28;20227;-75
2022/11/26 16:27:35;;;;;;;27.70;19.07;;;;;;;10.93;62.08;99335.53;8314706;28;20530;-75
2022/11/26 16:31:39;;;;;;;39.57;28.67;;;;;;;10.81;62.98;99322.88;8314384;28;20301;-74
2022/11/26 16:35:44;;;;;;;58.97;35.33;;;;;;;10.87;62.92;99335.69;8313954;28;20241;-74
2022/11/26 16:39:49;;;;;;;35.67;24.13;;;;;;;10.80;62.92;99334.13;8314048;28;20374;-74
2022/11/26 16:43:52;;;;;;;31.30;21.63;;;;;;;10.76;62.87;99324.72;8313436;28;20238;-71
2022/11/26 16:47:56;;;;;;;37.80;25.80;;;;;;;10.55;63.11;99323.50;8313775;28;20233;-73
2022/11/26 16:52:00;;;;;;;25.53;16.70;;;;;;;10.65;63.08;99318.94;8313711;28;20257;-74
2022/11/26 16:56:02;;;;;;;17.63;11.77;;;;;;;10.64;63.07;99312.03;8313622;28;20234;-74
2022/11/26 17:00:08;;;;;;;18.70;11.73;;;;;;;10.11;62.90;99230.34;8313728;28;20234;-73
2022/11/26 17:04:13;;;;;;;15.63;10.50;;;;;;;10.50;63.84;99325.31;8313161;28;20532;-73
2022/11/26 17:08:16;;;;;;;15.87;11.60;;;;;;;10.56;63.58;99326.00;8313184;28;20437;-74
2022/11/26 17:12:20;;;;;;;17.13;11.17;;;;;;;10.59;63.39;99335.47;8313619;28;20229;-75
2022/11/26 17:16:24;;;;;;;20.03;14.77;;;;;;;10.26;62.82;99319.78;8313027;28;20234;-73
2022/11/26 17:20:29;;;;;;;17.80;13.00;;;;;;;10.59;63.55;99327.72;8312960;28;20236;-74
2022/11/26 17:24:31;;;;;;;26.67;17.10;;;;;;;10.52;63.37;99326.13;8313200;28;20233;-74
2022/11/26 17:28:34;;;;;;;21.27;14.17;;;;;;;10.49;63.54;99321.00;8312859;28;20278;-74
2022/11/26 17:32:37;;;;;;;22.00;13.53;;;;;;;10.55;63.46;99333.84;8302913;28;20233;-73
2022/11/26 17:36:41;;;;;;;19.70;13.73;;;;;;;10.58;63.12;99323.41;8312280;28;20226;-74
2022/11/26 17:40:45;;;;;;;19.13;13.40;;;;;;;10.55;63.16;99328.66;8312448;28;20276;-74
2022/11/26 17:44:47;;;;;;;19.33;14.03;;;;;;;10.47;63.24;99328.84;8312770;28;20534;-74
2022/11/26 17:48:50;;;;;;;23.87;15.20;;;;;;;10.50;63.81;99327.91;8312283;28;20244;-74
2022/11/26 17:53:02;;;;;;;24.47;17.37;;;;;;;10.57;63.56;99332.91;8311624;28;20241;-74
2022/11/26 17:57:05;;;;;;;21.33;15.93;;;;;;;10.45;63.35;99319.38;8312030;28;20412;-74
2022/11/26 18:01:08;;;;;;;25.17;18.67;;;;;;;10.48;63.26;99329.69;8311948;28;20336;-73
2022/11/26 18:05:11;;;;;;;29.83;19.17;;;;;;;10.47;63.49;99334.03;8311404;28;20300;-73
2022/11/26 18:09:15;;;;;;;26.00;19.23;;;;;;;10.47;63.62;99328.84;8311804;28;20242;-73
2022/11/26 18:13:17;;;;;;;28.60;19.80;;;;;;;10.46;63.29;99328.88;8311592;28;20252;-73
2022/11/26 18:17:21;;;;;;;32.67;23.30;;;;;;;10.36;63.26;99317.88;8311275;28;20324;-74
2022/11/26 18:21:23;;;;;;;33.97;23.83;;;;;;;10.44;63.31;99323.72;8311672;28;20517;-74
2022/11/26 18:25:28;;;;;;;42.30;28.10;;;;;;;10.35;63.81;99332.53;8311516;28;20359;-74
2022/11/26 18:29:31;;;;;;;32.63;24.40;;;;;;;10.37;63.34;99330.75;8311423;28;20280;-74
2022/11/26 18:33:34;;;;;;;24.03;17.23;;;;;;;10.39;62.37;99324.69;8311240;28;20560;-73
2022/11/26 18:37:38;;;;;;;27.10;16.90;;;;;;;9.27;65.56;99333.75;8311660;28;20231;-74
2022/11/26 18:41:43;;;;;;;38.53;29.07;;;;;;;9.41;66.66;99340.41;8311349;28;20592;-74
2022/11/26 18:45:45;;;;;;;40.80;32.93;;;;;;;10.13;64.18;99339.88;8311048;28;20245;-74
2022/11/26 18:49:48;;;;;;;25.43;17.77;;;;;;;10.30;62.94;99329.19;8311601;28;20228;-74
2022/11/26 18:53:51;;;;;;;23.57;17.37;;;;;;;10.30;62.89;99333.47;8311360;28;20237;-73
2022/11/26 18:57:56;;;;;;;35.27;21.57;;;;;;;9.94;63.54;99320.44;8310513;28;20229;-72
2022/11/26 19:01:59;;;;;;;36.63;23.60;;;;;;;9.95;63.45;99322.97;8310913;28;20244;-75